Time;durP1;ratioP1;P1;durP2;ratioP2;P2;SDS_P1;SDS_P2;PMS_P1;PMS_P2;Temp;Humidity;BMP_temperature;BMP_pressure;BME280_temperature;BME280_humidity;BME280_pressure;Samples;Min_cycle;Max_cycle;Signal;HPM_P1;HPM_P2
2022/03/05 00:05:40;;;;;;;1999.90;999.90;;;;;;;2.46;67.41;101994.38;15425373;28;20043;-59
2022/03/05 00:13:13;;;;;;;1999.90;999.90;;;;;;;2.22;67.63;102000.03;15409221;28;20074;-59
2022/03/05 00:20:47;;;;;;;1999.90;999.90;;;;;;;2.07;68.16;101987.84;15409560;28;20142;-59
2022/03/05 00:28:20;;;;;;;1999.90;999.90;;;;;;;1.76;69.89;101992.75;15407586;28;20046;-58
2022/03/05 00:35:53;;;;;;;1999.90;999.90;;;;;;;1.85;69.46;101994.03;15424834;28;20038;-59
2022/03/05 00:43:25;;;;;;;1999.90;999.90;;;;;;;1.84;69.47;101988.78;15425225;23;20047;-62
2022/03/05 00:50:59;;;;;;;1999.90;999.90;;;;;;;2.19;68.10;101991.38;15492913;28;20077;-62
2022/03/05 00:58:31;;;;;;;1999.90;999.90;;;;;;;2.31;67.82;101990.28;15492237;28;20458;-59
2022/03/05 01:06:04;;;;;;;1999.90;999.90;;;;;;;2.29;66.96;101984.19;15425946;28;20042;-62
2022/03/05 01:13:37;;;;;;;1999.90;999.90;;;;;;;2.09;66.75;101999.50;15391422;28;20110;-62
2022/03/05 01:21:11;;;;;;;1999.90;999.90;;;;;;;1.95;66.60;102001.66;15421922;28;20042;-60
2022/03/05 01:28:43;;;;;;;1999.90;999.90;;;;;;;1.76;67.06;102000.16;15428880;28;20050;-58
2022/03/05 01:36:17;;;;;;;1999.90;999.90;;;;;;;1.67;67.96;101989.56;15429392;28;20405;-58
2022/03/05 01:43:49;;;;;;;;;;;;;;;1.73;67.30;101994.06;15371519;28;20050;-60
2022/03/05 01:51:23;;;;;;;1999.90;999.90;;;;;;;1.52;67.63;101983.72;15369546;29;19922;-59
2022/03/05 01:58:56;;;;;;;1999.90;999.90;;;;;;;1.59;66.94;101976.16;15370426;28;20090;-60
2022/03/05 02:06:29;;;;;;;1999.90;999.90;;;;;;;1.54;66.97;101981.53;15393950;28;20432;-57
2022/03/05 02:14:01;;;;;;;1999.90;999.90;;;;;;;1.29;67.53;101981.81;15396658;28;20102;-61
2022/03/05 02:21:36;;;;;;;1999.90;999.90;;;;;;;1.24;67.76;101972.63;15427029;28;20034;-59
2022/03/05 02:29:08;;;;;;;1999.90;999.90;;;;;;;1.10;68.11;101972.88;15432664;28;20431;-62
2022/03/05 02:36:41;;;;;;;1999.90;999.90;;;;;;;1.03;68.33;101971.31;15417428;28;20035;-61
2022/03/05 02:44:13;;;;;;;1999.90;999.90;;;;;;;0.96;67.78;101956.88;15400513;28;20122;-60
2022/03/05 02:51:47;;;;;;;1999.90;999.90;;;;;;;0.90;68.04;101961.38;15394923;28;20118;-60
2022/03/05 02:59:19;;;;;;;;;;;;;;;0.88;67.95;101951.72;15427615;28;20039;-61
2022/03/05 03:06:52;;;;;;;1999.90;999.90;;;;;;;0.78;67.61;101961.38;15411501;28;20017;-60
2022/03/05 03:14:25;;;;;;;1999.90;999.90;;;;;;;0.64;68.59;101961.84;15398288;28;20051;-60
2022/03/05 03:21:59;;;;;;;1999.90;999.90;;;;;;;0.44;68.09;101957.53;15413059;28;20089;-59
2022/03/05 03:29:31;;;;;;;;;;;;;;;0.58;68.93;101953.47;15375276;28;20062;-60
2022/03/05 03:37:06;;;;;;;1999.90;999.90;;;;;;;0.44;68.01;101959.44;15386707;28;20191;-60
2022/03/05 03:44:37;;;;;;;;;;;;;;;0.40;68.27;101967.28;15389486;28;20133;-59
2022/03/05 03:52:14;;;;;;;1999.90;999.90;;;;;;;0.26;68.47;101963.06;15378688;28;19926;-58
2022/03/05 03:59:47;;;;;;;1999.90;999.90;;;;;;;0.16;69.47;101965.53;15398558;28;20126;-58
2022/03/05 04:15:11;;;;;;;1999.90;999.90;;;;;;;0.13;68.67;101982.50;15391673;28;20548;-60
2022/03/05 04:22:44;;;;;;;;;;;;;;;0.19;68.00;101978.78;15433069;28;20038;-59
2022/03/05 04:30:16;;;;;;;1999.90;999.90;;;;;;;-0.04;68.47;101976.81;15427107;28;19961;-58
2022/03/05 04:37:51;;;;;;;1999.90;999.90;;;;;;;-0.07;67.70;101986.34;15417242;28;20050;-62
2022/03/05 04:45:24;;;;;;;1999.90;999.90;;;;;;;-0.19;68.39;101984.63;15438851;28;20097;-62
2022/03/05 04:52:57;;;;;;;1999.90;999.90;;;;;;;-0.31;68.29;101998.28;15396219;28;20122;-60
2022/03/05 05:00:29;;;;;;;;;;;;;;;-0.10;68.41;102005.19;15394100;28;20119;-60
2022/03/05 05:08:03;;;;;;;1999.90;999.90;;;;;;;-0.27;67.64;101998.63;15416643;28;19976;-59
2022/03/05 05:15:35;;;;;;;1999.90;999.90;;;;;;;-0.31;68.05;101996.38;15427625;28;20102;-60
2022/03/05 05:23:08;;;;;;;1999.90;999.90;;;;;;;-0.41;67.84;102006.19;15427331;28;20041;-60
2022/03/05 05:30:41;;;;;;;1999.90;999.90;;;;;;;-0.41;67.03;102014.44;15409282;28;20055;-59
2022/03/05 05:38:14;;;;;;;1999.90;999.90;;;;;;;-0.56;67.67;102013.94;15373014;28;20035;-59
2022/03/05 05:45:54;;;;;;;1999.90;999.90;;;;;;;-0.56;67.62;102014.78;15377811;28;20496;-60
2022/03/05 05:53:37;;;;;;;1999.90;999.90;;;;;;;-0.60;67.92;102019.91;15411603;28;20051;-61
2022/03/05 06:01:10;;;;;;;1999.90;999.90;;;;;;;-0.64;67.64;102029.63;15394081;28;20138;-59
2022/03/05 06:08:43;;;;;;;1999.90;999.90;;;;;;;-0.52;67.94;102031.63;15426663;28;20051;-60
2022/03/05 06:16:16;;;;;;;1999.90;999.90;;;;;;;-0.51;68.21;102025.09;15415541;28;20134;-60
2022/03/05 06:23:50;;;;;;;1999.90;999.90;;;;;;;-0.34;67.79;102032.47;15404737;28;20604;-62
2022/03/05 06:31:24;;;;;;;1999.90;999.90;;;;;;;-0.19;68.14;102037.59;15411720;28;20110;-60
2022/03/05 06:39:02;;;;;;;1999.90;999.90;;;;;;;0.02;68.26;102051.91;15404537;28;20566;-61
2022/03/05 06:46:35;;;;;;;1999.90;999.90;;;;;;;0.35;67.17;102063.28;15395144;28;20047;-63
2022/03/05 06:54:10;;;;;;;1999.90;999.90;;;;;;;0.71;66.49;102067.81;15417727;28;20039;-62
2022/03/05 07:01:43;;;;;;;1999.90;999.90;;;;;;;1.25;65.42;102067.78;15396187;28;20050;-62
2022/03/05 07:09:17;;;;;;;1999.90;999.90;;;;;;;2.69;64.08;102079.69;15407606;28;20134;-63
2022/03/05 07:16:49;;;;;;;;;;;;;;;4.87;59.58;102070.06;15417532;28;20047;-62
2022/03/05 07:24:22;;;;;;;1999.90;999.90;;;;;;;6.44;54.87;102075.81;15396463;28;19925;-61
2022/03/05 07:31:54;;;;;;;1999.90;999.90;;;;;;;6.97;55.33;102070.91;15386983;28;20074;-62
2022/03/05 07:39:28;;;;;;;1999.90;999.90;;;;;;;5.67;58.44;102079.28;15378224;28;20378;-61
2022/03/05 07:47:00;;;;;;;1999.90;999.90;;;;;;;6.23;57.46;102088.75;15390384;28;20105;-61
2022/03/05 07:54:33;;;;;;;1999.90;999.90;;;;;;;6.90;56.19;102093.41;15437978;28;20101;-60
2022/03/05 08:02:06;;;;;;;1999.90;999.90;;;;;;;5.84;57.78;102096.59;15427637;28;20042;-60
2022/03/05 08:09:40;;;;;;;1999.90;999.90;;;;;;;7.69;55.19;102092.00;15435335;28;20173;-61
2022/03/05 08:17:13;;;;;;;1999.90;999.90;;;;;;;7.48;54.39;102096.75;15414039;28;20408;-62
2022/03/05 08:24:46;;;;;;;1999.90;999.90;;;;;;;7.50;54.95;102099.25;15377791;28;20048;-61
2022/03/05 08:32:18;;;;;;;1999.90;999.90;;;;;;;8.66;52.21;102092.53;15382945;28;20416;-62
2022/03/05 08:39:52;;;;;;;1999.90;999.90;;;;;;;9.07;51.63;102085.88;15404639;28;20053;-62
2022/03/05 08:47:24;;;;;;;1999.90;999.90;;;;;;;9.88;48.52;102098.22;15372146;29;20048;-61
2022/03/05 08:54:57;;;;;;;1999.90;999.90;;;;;;;9.20;50.14;102097.19;15403588;28;20047;-63
2022/03/05 09:02:30;;;;;;;1999.90;999.90;;;;;;;9.49;48.71;102102.81;15373148;28;20036;-65
2022/03/05 09:10:04;;;;;;;1999.90;999.90;;;;;;;10.77;47.57;102093.81;15371690;28;20043;-63
2022/03/05 09:17:36;;;;;;;1999.90;999.90;;;;;;;11.15;45.16;102100.25;15449427;28;20038;-63
2022/03/05 09:25:11;;;;;;;1999.90;999.90;;;;;;;11.92;43.98;102096.13;15492092;28;20058;-64
2022/03/05 09:32:43;;;;;;;1999.90;999.90;;;;;;;11.74;43.42;102107.03;15490395;28;20073;-64
2022/03/05 09:40:17;;;;;;;1999.90;999.90;;;;;;;12.69;42.00;102093.41;15489863;28;20043;-64
2022/03/05 09:47:49;;;;;;;1999.90;999.90;;;;;;;14.03;39.63;102096.25;15489067;28;20077;-63
2022/03/05 09:55:23;;;;;;;1999.90;999.90;;;;;;;13.25;40.32;102092.97;15489116;28;20050;-62
2022/03/05 10:02:55;;;;;;;1999.90;999.90;;;;;;;13.65;39.79;102093.09;15473825;28;20043;-65
2022/03/05 10:10:29;;;;;;;1999.90;999.90;;;;;;;13.35;40.44;102108.72;15403159;28;20134;-65
2022/03/05 10:18:02;;;;;;;1999.90;999.90;;;;;;;14.05;38.86;102090.31;15424070;28;20130;-65
2022/03/05 10:25:38;;;;;;;1999.90;999.90;;;;;;;13.72;39.74;102082.22;15409311;28;20113;-63
2022/03/05 10:33:24;;;;;;;1999.90;999.90;;;;;;;14.10;38.82;102090.16;15388716;28;20074;-64
2022/03/05 10:40:58;;;;;;;1999.90;999.90;;;;;;;15.03;36.86;102081.50;15370631;28;20058;-64
2022/03/05 10:48:32;;;;;;;1999.90;999.90;;;;;;;14.86;35.91;102082.28;15386696;28;20055;-63
2022/03/05 10:56:29;;;;;;;1999.90;999.90;;;;;;;17.48;33.11;102067.56;15382576;28;20122;-63
2022/03/05 11:04:01;;;;;;;1999.90;999.90;;;;;;;16.92;34.35;102065.09;15408945;28;20486;-62
2022/03/05 11:11:39;;;;;;;1999.90;999.90;;;;;;;15.56;34.34;102069.84;15430662;28;20365;-63
2022/03/05 11:19:11;;;;;;;1999.90;999.90;;;;;;;13.29;36.91;102054.72;15470027;28;20082;-62
2022/03/05 11:26:47;;;;;;;1999.90;999.90;;;;;;;15.78;33.07;102046.31;15452976;28;20046;-63
2022/03/05 11:34:23;;;;;;;1999.90;999.90;;;;;;;14.88;35.75;102043.44;15437993;28;20066;-60
2022/03/05 11:42:01;;;;;;;1999.90;999.90;;;;;;;15.52;32.44;102039.91;15451182;28;20062;-66
2022/03/05 11:50:08;;;;;;;1999.90;999.90;;;;;;;16.84;30.53;102028.50;15497230;28;20097;-62
2022/03/05 11:57:43;;;;;;;1999.90;999.90;;;;;;;16.97;30.48;102016.94;15497031;28;20105;-65
2022/03/05 12:05:49;;;;;;;1999.90;999.90;;;;;;;11.96;37.96;102011.28;15494629;28;20061;-65
2022/03/05 12:13:31;;;;;;;1999.90;999.90;;;;;;;10.68;39.49;102017.44;15494884;28;20073;-63
2022/03/05 12:21:03;;;;;;;1999.90;999.90;;;;;;;10.98;40.09;102005.81;15438608;28;20073;-64
2022/03/05 12:28:43;;;;;;;1999.90;999.90;;;;;;;11.67;38.24;102003.19;15434412;28;20051;-64
2022/03/05 12:36:17;;;;;;;1999.90;999.90;;;;;;;11.60;37.99;101990.72;15432232;28;20054;-65
2022/03/05 12:43:50;;;;;;;1999.90;999.90;;;;;;;11.56;39.41;101988.53;15434014;28;20512;-64
2022/03/05 12:51:23;;;;;;;1999.90;999.90;;;;;;;12.06;37.84;101991.47;15434230;28;20074;-61
2022/03/05 12:58:58;;;;;;;1999.90;999.90;;;;;;;11.03;39.91;101990.91;15433880;28;20576;-63
2022/03/05 13:06:30;;;;;;;1999.90;999.90;;;;;;;10.11;42.54;102000.66;15432919;28;20039;-62
2022/03/05 13:14:04;;;;;;;1999.90;999.90;;;;;;;9.01;44.00;101984.00;15432293;28;20053;-61
2022/03/05 13:21:40;;;;;;;1999.90;999.90;;;;;;;8.34;45.08;101983.66;15490742;28;20093;-62
2022/03/05 13:29:14;;;;;;;1999.90;999.90;;;;;;;8.17;45.09;101983.19;15493046;28;20081;-63
2022/03/05 13:36:47;;;;;;;1999.90;999.90;;;;;;;8.38;44.83;101982.81;15489738;28;20054;-61
2022/03/05 13:44:22;;;;;;;1999.90;999.90;;;;;;;8.12;45.59;101986.81;15489817;28;20093;-63
2022/03/05 13:51:56;;;;;;;1999.90;999.90;;;;;;;8.04;44.89;101988.25;15457863;28;20529;-60
2022/03/05 13:59:38;;;;;;;1999.90;999.90;;;;;;;8.10;44.95;101981.53;15431030;28;20057;-62
2022/03/05 14:07:10;;;;;;;1999.90;999.90;;;;;;;8.08;45.21;101978.22;15416701;28;20133;-63
2022/03/05 14:14:48;;;;;;;1999.90;999.90;;;;;;;8.28;45.42;101973.66;15455310;28;20066;-62
2022/03/05 14:22:22;;;;;;;1999.90;999.90;;;;;;;8.57;43.55;101969.06;15491494;28;20121;-63
2022/03/05 14:29:55;;;;;;;1999.90;999.90;;;;;;;8.78;43.22;101961.38;15427574;28;20118;-60
2022/03/05 14:37:27;;;;;;;1999.90;999.90;;;;;;;8.58;44.75;101955.97;15429486;28;20054;-62
2022/03/05 14:45:01;;;;;;;1999.90;999.90;;;;;;;8.60;42.86;101962.06;15473264;28;20054;-63
2022/03/05 14:52:34;;;;;;;1999.90;999.90;;;;;;;8.13;45.32;101949.56;15486242;28;20049;-60
2022/03/05 15:00:11;;;;;;;1999.90;999.90;;;;;;;8.26;44.46;101953.66;15486893;28;20046;-60
2022/03/05 15:07:44;;;;;;;1999.90;999.90;;;;;;;8.15;45.17;101943.72;15484735;28;20046;-61
2022/03/05 15:15:18;;;;;;;1999.90;999.90;;;;;;;7.77;45.16;101948.91;15461880;28;20051;-61
2022/03/05 15:22:50;;;;;;;1999.90;999.90;;;;;;;7.19;46.27;101952.13;15418872;28;20404;-60
2022/03/05 15:30:23;;;;;;;1999.90;999.90;;;;;;;7.05;46.55;101959.34;15422670;28;20047;-62
2022/03/05 15:37:55;;;;;;;;;;;;;;;7.07;46.94;101957.13;15380670;28;20054;-60
2022/03/05 15:45:29;;;;;;;1999.90;999.90;;;;;;;6.80;46.93;101951.88;15391500;28;19977;-60
2022/03/05 15:53:03;;;;;;;1999.90;999.90;;;;;;;6.60;47.32;101955.50;15395759;28;20047;-59
2022/03/05 16:00:36;;;;;;;1999.90;999.90;;;;;;;6.74;47.43;101953.00;15363295;29;20554;-61
2022/03/05 16:08:08;;;;;;;;;;;;;;;6.66;47.55;101950.75;15410358;28;20512;-62
2022/03/05 16:15:42;;;;;;;1999.90;999.90;;;;;;;6.69;47.34;101960.50;15442363;28;19922;-59
2022/03/05 16:23:14;;;;;;;1999.90;999.90;;;;;;;6.76;47.64;101950.75;15461689;28;20043;-59
2022/03/05 16:30:47;;;;;;;1999.90;999.90;;;;;;;6.88;47.45;101948.56;15491072;28;20066;-61
2022/03/05 16:38:19;;;;;;;1999.90;999.90;;;;;;;6.58;48.52;101948.56;15410240;28;20130;-60
2022/03/05 16:45:53;;;;;;;1999.90;999.90;;;;;;;6.56;48.19;101946.03;15374490;28;20497;-59
2022/03/05 16:53:26;;;;;;;1999.90;999.90;;;;;;;5.58;49.62;101951.56;15468914;28;20385;-58
2022/03/05 17:00:59;;;;;;;1999.90;999.90;;;;;;;5.65;50.03;101952.16;15493193;28;20084;-59
2022/03/05 17:08:32;;;;;;;1999.90;999.90;;;;;;;5.15;50.53;101956.31;15397462;28;20047;-60
2022/03/05 17:16:06;;;;;;;1999.90;999.90;;;;;;;5.03;51.08;101955.69;15396138;28;20051;-60
2022/03/05 17:23:38;;;;;;;1999.90;999.90;;;;;;;5.06;50.87;101962.59;15425408;28;20108;-63
2022/03/05 17:31:11;;;;;;;1999.90;999.90;;;;;;;4.72;51.23;101973.13;15439266;28;20221;-63
2022/03/05 17:38:43;;;;;;;1999.90;999.90;;;;;;;4.61;50.24;101975.81;15375512;28;20420;-58
2022/03/05 17:46:17;;;;;;;1999.90;999.90;;;;;;;4.51;51.00;101972.94;15382409;28;20055;-61
2022/03/05 17:53:49;;;;;;;1999.90;999.90;;;;;;;4.19;51.91;101978.44;15372151;28;20468;-61
2022/03/05 18:01:22;;;;;;;1999.90;999.90;;;;;;;4.17;51.79;101982.53;15352115;29;20051;-61
2022/03/05 18:08:54;;;;;;;1999.90;999.90;;;;;;;3.99;51.43;101983.72;15367966;29;20043;-60
2022/03/05 18:16:28;;;;;;;1999.90;999.90;;;;;;;3.85;51.14;101985.19;15369675;28;20043;-61
2022/03/05 18:24:00;;;;;;;1999.90;999.90;;;;;;;3.75;51.82;101988.66;15392287;28;20361;-60
2022/03/05 18:31:33;;;;;;;1999.90;999.90;;;;;;;3.60;51.74;101994.00;15488003;28;20050;-62
2022/03/05 18:39:06;;;;;;;1999.90;999.90;;;;;;;3.74;51.37;101995.28;15486716;28;20399;-60
2022/03/05 18:46:39;;;;;;;1999.90;999.90;;;;;;;3.56;51.74;102004.72;15487921;28;20043;-63
2022/03/05 18:54:13;;;;;;;1999.90;999.90;;;;;;;3.46;51.67;102007.34;15402068;28;20572;-62
2022/03/05 19:01:47;;;;;;;1999.90;999.90;;;;;;;4.02;49.92;102003.38;15428151;28;20133;-62
2022/03/05 19:09:19;;;;;;;;;;;;;;;3.83;51.48;102009.47;15474012;28;20331;-63
2022/03/05 19:16:52;;;;;;;1999.90;999.90;;;;;;;4.05;49.97;102016.66;15446328;28;19922;-63
2022/03/05 19:24:25;;;;;;;1999.90;999.90;;;;;;;3.92;50.99;102007.94;15407641;28;20385;-63
2022/03/05 19:31:59;;;;;;;1999.90;999.90;;;;;;;3.61;52.15;102009.47;15448542;28;20054;-63
2022/03/05 19:39:31;;;;;;;1999.90;999.90;;;;;;;3.26;53.31;102018.91;15485172;28;20128;-63
2022/03/05 19:47:07;;;;;;;1999.90;999.90;;;;;;;3.07;54.69;102015.56;15496903;28;20043;-62
2022/03/05 19:54:39;;;;;;;1999.90;999.90;;;;;;;2.93;54.81;102017.00;15497502;28;20093;-62
2022/03/05 20:02:13;;;;;;;1999.90;999.90;;;;;;;2.87;54.65;102020.75;15496270;28;20046;-62
2022/03/05 20:09:45;;;;;;;1999.90;999.90;;;;;;;2.72;54.60;102013.06;15439853;28;20101;-62
2022/03/05 20:17:19;;;;;;;1999.90;999.90;;;;;;;2.56;55.08;102022.13;15398850;28;20504;-61
2022/03/05 20:24:51;;;;;;;;;;;;;;;2.50;55.71;102017.59;15401533;28;20035;-62
2022/03/05 20:32:25;;;;;;;1999.90;999.90;;;;;;;2.39;55.58;102026.75;15388362;28;19922;-62
2022/03/05 20:39:56;;;;;;;;;;;;;;;2.35;56.04;102034.69;15455468;28;20054;-63
2022/03/05 20:47:30;;;;;;;1999.90;999.90;;;;;;;2.23;56.34;102029.22;15444488;28;19953;-63
2022/03/05 20:55:02;;;;;;;;;;;;;;;2.17;57.01;102029.38;15469166;28;20439;-63
2022/03/05 21:02:35;;;;;;;1999.90;999.90;;;;;;;1.96;57.58;102034.47;15396814;28;19930;-63
2022/03/05 21:10:09;;;;;;;1999.90;999.90;;;;;;;1.80;57.82;102042.66;15399342;28;20055;-64
2022/03/05 21:17:43;;;;;;;1999.90;999.90;;;;;;;1.78;58.85;102039.31;15420628;28;20051;-63
2022/03/05 21:25:15;;;;;;;1999.90;999.90;;;;;;;1.88;59.00;102050.53;15411860;28;20054;-58
2022/03/05 21:32:49;;;;;;;1999.90;999.90;;;;;;;2.07;59.33;102056.69;15377325;28;20078;-62
2022/03/05 21:40:22;;;;;;;1999.90;999.90;;;;;;;2.24;58.53;102055.69;15396671;28;20062;-63
2022/03/05 21:47:55;;;;;;;1999.90;999.90;;;;;;;2.45;58.01;102056.09;15410790;28;20057;-63
2022/03/05 21:55:28;;;;;;;1999.90;999.90;;;;;;;2.12;59.51;102052.16;15441963;28;20044;-65
2022/03/05 22:03:02;;;;;;;1999.90;999.90;;;;;;;2.25;60.10;102040.00;15371389;28;20118;-64
2022/03/05 22:10:34;;;;;;;1999.90;999.90;;;;;;;2.34;59.78;102043.19;15419509;28;20408;-60
2022/03/05 22:18:07;;;;;;;1999.90;999.90;;;;;;;2.47;59.89;102042.91;15428073;28;20089;-61
2022/03/05 22:25:39;;;;;;;1999.90;999.90;;;;;;;2.43;60.43;102052.75;15395668;28;20074;-62
2022/03/05 22:33:13;;;;;;;1999.90;999.90;;;;;;;2.57;59.43;102040.34;15406728;28;20053;-62
2022/03/05 22:40:45;;;;;;;1999.90;999.90;;;;;;;2.37;59.34;102040.78;15398174;28;20472;-62
2022/03/05 22:48:19;;;;;;;1999.90;999.90;;;;;;;2.46;59.51;102035.72;15380476;28;20101;-61
2022/03/05 22:55:51;;;;;;;1999.90;999.90;;;;;;;2.59;59.14;102033.47;15461156;28;20057;-61
2022/03/05 23:11:14;;;;;;;1999.90;999.90;;;;;;;2.59;60.31;102040.91;15365959;28;20400;-61
2022/03/05 23:18:48;;;;;;;1999.90;999.90;;;;;;;2.67;60.26;102043.28;15405328;28;20090;-62
2022/03/05 23:26:20;;;;;;;1999.90;999.90;;;;;;;2.76;59.00;102039.03;15424696;28;20046;-61
2022/03/05 23:33:53;;;;;;;1999.90;999.90;;;;;;;2.82;58.93;102042.72;15440963;28;20105;-61
2022/03/05 23:41:26;;;;;;;1999.90;999.90;;;;;;;3.04;58.90;102042.81;15398113;28;20505;-63
2022/03/05 23:48:59;;;;;;;1999.90;999.90;;;;;;;2.98;58.36;102054.84;15431001;28;20094;-61
2022/03/05 23:56:33;;;;;;;1999.90;999.90;;;;;;;3.00;58.49;102047.97;15406000;28;20040;-61
